Historyczne dane pomiarowe

Dodano dane terminowe – wersja testowa.

Dane z okresu 1951-2019

Wersja bazy: 1.34 [2019-03-16, lista zmian], aktualizacja planowana na 2019-04-15

Dane meteo z obszaru Polski uzyskane na podstawie danych udostępnionych przez Instytut Meteorologii i Gospodarki Wodnej – Państwowy Instytut Badawczy.

 

Wybierz Datę:    

       

TemperaturaWilgotnośćWiatrCiśnienieOpadyŚniegCzas trwania zjawisk
 Stacja t tx tn tng RH VA  wxwx mslp ppp RRR   cm mm wxwxwxwxwxwxwx
1962-02-25-13.5 -6.1-23.5--- 8.0 0.0---- 0.0-- 44---------
1962-02-26 -8.0 -2.2-14.5--- 5.3 0.7---- 0.0-- 43---------
1962-02-27 -3.8 1.0-11.1--- 8.0 0.7---- 1.6-- 34---------
1962-02-28 -1.9 1.3 -4.3--- 8.0 0.0---- 0.6-- 28---------
1962-03-01 -1.5 2.3 -5.3--- 8.0 2.7---- 0.0-- 28---------
1962-03-02 -1.3 0.9 -3.2--- 8.0 0.7---- 0.3-- 28---------
1962-03-03 -0.5 3.4 -3.4--- 7.3 0.7---- 0.0-- 28---------
1962-03-04 4.3 8.5 -5.1--- 6.7 0.3---- 0.0-- 27---------
1962-03-05 8.3 14.4 5.5--- 6.3 3.3---- 0.5-- 20---------
1962-03-06 1.5 6.4 -1.2--- 8.0 4.7---- 2.1------------
1962-03-07 -4.1 -0.7 -5.1--- 8.0 2.0---- 2.4-- 12---------
1962-03-08 -8.0 -1.9-10.7--- 3.7 1.0---- 0.0-- 20---------
1962-03-09 -6.1 4.3-17.6--- 0.3 0.0---- 0.0-- 18---------
1962-03-10 1.5 5.9 -9.1--- 7.0 1.0---- 0.0-- 15---------
1962-03-11 2.2 6.7 -0.2--- 7.0 0.7---- 0.6-- 10---------
1962-03-12 1.0 2.3 0.2--- 8.0 0.7---- 4.9------------
1962-03-13 -4.6 1.4 -6.1--- 7.3 6.3---- 0.2------------
1962-03-14 -7.0 -3.4-10.1--- 5.0 1.7---- 0.0-- 3---------
1962-03-15 -7.4 -5.7 -9.3--- 8.0 3.0---- 14.0-- 2---------
1962-03-16 -7.8 -6.1 -9.1--- 8.0 5.0---- 10.7-- 33---------
1962-03-17 -7.5 -6.4 -9.6--- 8.0 3.3---- 7.6-- 65---------
1962-03-18 -4.9 -1.8 -7.5--- 5.7 2.0---- 0.1-- 86---------
1962-03-19 -6.6 1.2-13.6--- 4.3 0.0---- 0.0-- 58---------
1962-03-20 -6.0 1.6-15.2--- 2.3 0.0---- 0.0-- 49---------
1962-03-21 -5.6 5.9-19.7--- 3.3 0.0---- 0.0-- 46---------
1962-03-22 -4.5 -2.2 -6.9--- 8.0 0.7---- 1.7-- 43---------
1962-03-23 -3.3 -1.2 -5.7--- 8.0 0.0---- 4.7-- 45---------
1962-03-24 -1.9 0.4 -4.3--- 8.0 1.0---- 0.0-- 43---------
1962-03-25 -5.3 -0.8-13.5--- 8.0 0.7---- 0.0-- 43---------
1962-03-26 -8.9 -0.4-19.0--- 0.3 1.3---- 0.0-- 41---------
204.2 ms

 

Źródłem pochodzenia danych jest Instytut Meteorologii i Gospodarki Wodnej – Państwowy Instytut Badawczy. Dane Instytutu Meteorologii i Gospodarki Wodnej – Państwowego Instytutu Badawczego zostały przetworzone.

Dane źródłowe można odnaleźć na stronie https://dane.imgw.pl